Time,TemperatureF,DewpointF,PressureIn,WindDirection,WindDirectionDegrees,WindSpeedMPH,WindSpeedGustMPH,Humidity,HourlyPrecipIn,Conditions,Clouds,dailyrainin,SoftwareType,DateUTC
2013-01-16 00:13:00,22.4,16.0,30.29,North,355,0.0,0.0,76,0.00,,,0.00,weatherlink.com 1.10,2013-01-16 06:13:00,
2013-01-16 00:28:00,22.1,16.0,30.29,North,349,0.0,0.0,76,0.00,,,0.00,weatherlink.com 1.10,2013-01-16 06:28:00,
2013-01-16 00:43:00,21.2,15.0,30.28,NNW,328,0.0,0.0,77,0.00,,,0.00,weatherlink.com 1.10,2013-01-16 06:43:00,
2013-01-16 00:58:00,21.7,16.0,30.28,NNE,20,0.0,1.0,77,0.00,,,0.00,weatherlink.com 1.10,2013-01-16 06:58:00,
2013-01-16 01:13:00,22.2,15.0,30.28,North,8,0.0,0.0,75,0.00,,,0.00,weatherlink.com 1.10,2013-01-16 07:13:00,
2013-01-16 01:28:00,21.8,15.0,30.28,North,355,0.0,0.0,74,0.00,,,0.00,weatherlink.com 1.10,2013-01-16 07:28:00,
2013-01-16 01:58:00,20.6,14.0,30.29,NW,319,0.0,0.0,77,0.00,,,0.00,weatherlink.com 1.10,2013-01-16 07:58:00,
2013-01-16 02:13:00,20.2,14.0,30.29,WNW,285,0.0,1.0,78,0.00,,,0.00,weatherlink.com 1.10,2013-01-16 08:13:00,
2013-01-16 02:28:00,20.1,15.0,30.29,WNW,288,0.0,2.0,79,0.00,,,0.00,weatherlink.com 1.10,2013-01-16 08:28:00,
2013-01-16 02:43:00,20.6,14.0,30.29,WNW,285,0.0,0.0,77,0.00,,,0.00,weatherlink.com 1.10,2013-01-16 08:43:00,
2013-01-16 02:59:00,20.3,14.0,30.29,West,277,0.0,0.0,77,0.00,,,0.00,weatherlink.com 1.10,2013-01-16 08:59:00,
2013-01-16 03:13:00,20.1,14.0,30.30,West,281,0.0,1.0,77,0.00,,,0.00,weatherlink.com 1.10,2013-01-16 09:13:00,
2013-01-16 03:28:00,20.0,14.0,30.30,SE,142,0.0,1.0,77,0.00,,,0.00,weatherlink.com 1.10,2013-01-16 09:28:00,
2013-01-16 03:44:00,19.7,13.0,30.30,SE,143,0.0,0.0,76,0.00,,,0.00,weatherlink.com 1.10,2013-01-16 09:44:00,
2013-01-16 03:59:00,19.1,13.0,30.31,South,186,0.0,0.0,77,0.00,,,0.00,weatherlink.com 1.10,2013-01-16 09:59:00,
2013-01-16 04:14:00,19.2,13.0,30.30,South,186,0.0,0.0,78,0.00,,,0.00,weatherlink.com 1.10,2013-01-16 10:14:00,
2013-01-16 04:29:00,18.8,13.0,30.30,SSW,212,0.0,0.0,79,0.00,,,0.00,weatherlink.com 1.10,2013-01-16 10:29:00,
2013-01-16 04:44:00,18.9,13.0,30.30,SW,229,0.0,0.0,78,0.00,,,0.00,weatherlink.com 1.10,2013-01-16 10:44:00,
2013-01-16 04:59:00,18.8,13.0,30.30,SW,226,0.0,0.0,79,0.00,,,0.00,weatherlink.com 1.10,2013-01-16 10:59:00,
2013-01-16 05:14:00,17.9,13.0,30.30,SSW,212,0.0,0.0,80,0.00,,,0.00,weatherlink.com 1.10,2013-01-16 11:14:00,
2013-01-16 05:29:00,17.4,13.0,30.29,SSW,212,0.0,0.0,82,0.00,,,0.00,weatherlink.com 1.10,2013-01-16 11:29:00,
2013-01-16 05:44:00,18.1,13.0,30.30,WSW,238,0.0,0.0,81,0.00,,,0.00,weatherlink.com 1.10,2013-01-16 11:44:00,
2013-01-16 05:59:00,18.3,13.0,30.30,SW,231,0.0,1.0,81,0.00,,,0.00,weatherlink.com 1.10,2013-01-16 11:59:00,
2013-01-16 06:14:00,18.4,14.0,30.31,WSW,245,0.0,2.0,81,0.00,,,0.00,weatherlink.com 1.10,2013-01-16 12:14:00,
2013-01-16 06:29:00,18.4,14.0,30.31,West,260,0.0,1.0,81,0.00,,,0.00,weatherlink.com 1.10,2013-01-16 12:29:00,
2013-01-16 06:44:00,18.1,13.0,30.32,West,273,0.0,0.0,81,0.00,,,0.00,weatherlink.com 1.10,2013-01-16 12:44:00,
2013-01-16 06:59:00,17.1,12.0,30.31,West,272,0.0,0.0,81,0.00,,,0.00,weatherlink.com 1.10,2013-01-16 12:59:00,
2013-01-16 07:14:00,16.3,12.0,30.32,West,272,0.0,0.0,83,0.00,,,0.00,weatherlink.com 1.10,2013-01-16 13:14:00,
2013-01-16 07:29:00,16.0,12.0,30.32,SE,132,0.0,0.0,84,0.00,,,0.00,weatherlink.com 1.10,2013-01-16 13:29:00,
2013-01-16 07:44:00,15.6,12.0,30.32,SE,132,0.0,0.0,85,0.00,,,0.00,weatherlink.com 1.10,2013-01-16 13:44:00,
2013-01-16 07:59:00,15.4,12.0,30.32,SE,132,0.0,0.0,85,0.00,,,0.00,weatherlink.com 1.10,2013-01-16 13:59:00,
2013-01-16 08:14:00,16.1,13.0,30.33,SE,132,0.0,0.0,87,0.00,,,0.00,weatherlink.com 1.10,2013-01-16 14:14:00,
2013-01-16 08:30:00,18.7,16.0,30.33,WSW,249,0.0,1.0,89,0.00,,,0.00,weatherlink.com 1.10,2013-01-16 14:30:00,
2013-01-16 08:44:00,22.3,18.0,30.33,SW,225,0.0,2.0,82,0.00,,,0.00,weatherlink.com 1.10,2013-01-16 14:44:00,
2013-01-16 08:59:00,24.7,18.0,30.33,WNW,284,0.0,3.0,77,0.00,,,0.00,weatherlink.com 1.10,2013-01-16 14:59:00,
2013-01-16 09:14:00,26.1,19.0,30.33,WNW,285,0.0,3.0,74,0.00,,,0.00,weatherlink.com 1.10,2013-01-16 15:14:00,
2013-01-16 09:29:00,28.2,20.0,30.33,SW,230,1.0,3.0,70,0.00,,,0.00,weatherlink.com 1.10,2013-01-16 15:29:00,
2013-01-16 09:44:00,29.8,20.0,30.33,WSW,245,2.0,5.0,66,0.00,,,0.00,weatherlink.com 1.10,2013-01-16 15:44:00,
2013-01-16 09:59:00,31.3,21.0,30.32,SW,214,3.0,3.0,66,0.00,,,0.00,weatherlink.com 1.10,2013-01-16 15:59:00,
2013-01-16 10:14:00,32.9,21.0,30.32,SSE,167,0.0,4.0,63,0.00,,,0.00,weatherlink.com 1.10,2013-01-16 16:14:00,
2013-01-16 10:30:00,34.5,23.0,30.31,SSW,210,0.0,4.0,62,0.00,,,0.00,weatherlink.com 1.10,2013-01-16 16:30:00,
2013-01-16 10:45:00,36.3,22.0,30.31,NW,307,1.0,6.0,56,0.00,,,0.00,weatherlink.com 1.10,2013-01-16 16:45:00,
2013-01-16 11:00:00,37.6,22.0,30.30,NNW,328,1.0,10.0,54,0.00,,,0.00,weatherlink.com 1.10,2013-01-16 17:00:00,
2013-01-16 11:15:00,38.5,23.0,30.30,SSW,211,1.0,8.0,54,0.00,,,0.00,weatherlink.com 1.10,2013-01-16 17:15:00,
2013-01-16 11:30:00,39.2,22.0,30.30,WSW,255,2.0,9.0,50,0.00,,,0.00,weatherlink.com 1.10,2013-01-16 17:30:00,
2013-01-16 11:45:00,39.9,22.0,30.29,NW,304,6.0,11.0,49,0.00,,,0.00,weatherlink.com 1.10,2013-01-16 17:45:00,
2013-01-16 12:00:00,40.5,23.0,30.28,SW,231,4.0,12.0,49,0.00,,,0.00,weatherlink.com 1.10,2013-01-16 18:00:00,
2013-01-16 12:15:00,41.6,23.0,30.27,WSW,240,2.0,7.0,48,0.00,,,0.00,weatherlink.com 1.10,2013-01-16 18:15:00,
2013-01-16 12:30:00,42.2,22.0,30.26,WNW,302,3.0,7.0,44,0.00,,,0.00,weatherlink.com 1.10,2013-01-16 18:30:00,
2013-01-16 12:45:00,42.3,21.0,30.25,West,277,6.0,10.0,43,0.00,,,0.00,weatherlink.com 1.10,2013-01-16 18:45:00,
2013-01-16 13:00:00,42.6,20.0,30.24,WSW,244,4.0,9.0,41,0.00,,,0.00,weatherlink.com 1.10,2013-01-16 19:00:00,
2013-01-16 13:15:00,43.6,20.0,30.23,NW,319,3.0,12.0,39,0.00,,,0.00,weatherlink.com 1.10,2013-01-16 19:15:00,
2013-01-16 13:30:00,44.2,20.0,30.23,WSW,249,3.0,8.0,38,0.00,,,0.00,weatherlink.com 1.10,2013-01-16 19:30:00,
2013-01-16 13:45:00,45.0,19.0,30.22,West,278,3.0,8.0,35,0.00,,,0.00,weatherlink.com 1.10,2013-01-16 19:45:00,
2013-01-16 14:00:00,45.8,18.0,30.21,WSW,246,3.0,10.0,33,0.00,,,0.00,weatherlink.com 1.10,2013-01-16 20:00:00,
2013-01-16 14:15:00,46.0,17.0,30.21,NNW,339,3.0,8.0,31,0.00,,,0.00,weatherlink.com 1.10,2013-01-16 20:15:00,
2013-01-16 14:30:00,46.4,16.0,30.21,WNW,303,1.0,8.0,30,0.00,,,0.00,weatherlink.com 1.10,2013-01-16 20:30:00,
2013-01-16 14:45:00,47.1,17.0,30.21,WNW,283,5.0,7.0,30,0.00,,,0.00,weatherlink.com 1.10,2013-01-16 20:45:00,
2013-01-16 15:00:00,47.3,17.0,30.21,NW,323,3.0,8.0,30,0.00,,,0.00,weatherlink.com 1.10,2013-01-16 21:00:00,
2013-01-16 15:15:00,47.3,19.0,30.21,NW,311,1.0,8.0,32,0.00,,,0.00,weatherlink.com 1.10,2013-01-16 21:15:00,
2013-01-16 15:30:00,47.2,19.0,30.21,NNW,328,2.0,8.0,33,0.00,,,0.00,weatherlink.com 1.10,2013-01-16 21:30:00,
2013-01-16 15:45:00,47.8,20.0,30.21,WSW,257,0.0,6.0,33,0.00,,,0.00,weatherlink.com 1.10,2013-01-16 21:45:00,
2013-01-16 16:00:00,47.9,19.0,30.21,West,268,2.0,9.0,32,0.00,,,0.00,weatherlink.com 1.10,2013-01-16 22:00:00,
2013-01-16 16:16:00,48.1,21.0,30.22,SW,233,3.0,7.0,34,0.00,,,0.00,weatherlink.com 1.10,2013-01-16 22:16:00,
2013-01-16 16:31:00,47.4,21.0,30.21,West,262,2.0,8.0,35,0.00,,,0.00,weatherlink.com 1.10,2013-01-16 22:31:00,
2013-01-16 16:46:00,47.3,21.0,30.21,NW,320,3.0,5.0,35,0.00,,,0.00,weatherlink.com 1.10,2013-01-16 22:46:00,
2013-01-16 17:01:00,46.2,21.0,30.21,NW,311,1.0,4.0,37,0.00,,,0.00,weatherlink.com 1.10,2013-01-16 23:01:00,
2013-01-16 17:16:00,45.3,20.0,30.21,NW,307,0.0,4.0,37,0.00,,,0.00,weatherlink.com 1.10,2013-01-16 23:16:00,
2013-01-16 17:31:00,43.8,20.0,30.21,WNW,291,0.0,0.0,38,0.00,,,0.00,weatherlink.com 1.10,2013-01-16 23:31:00,
2013-01-16 17:46:00,41.9,20.0,30.22,WSW,243,0.0,0.0,41,0.00,,,0.00,weatherlink.com 1.10,2013-01-16 23:46:00,
2013-01-16 18:01:00,40.2,20.0,30.22,SW,226,0.0,0.0,44,0.00,,,0.00,weatherlink.com 1.10,2013-01-17 00:01:00,
2013-01-16 18:17:00,39.0,20.0,30.23,SW,226,0.0,0.0,46,0.00,,,0.00,weatherlink.com 1.10,2013-01-17 00:17:00,
2013-01-16 18:31:00,39.2,20.0,30.23,SW,228,0.0,1.0,46,0.00,,,0.00,weatherlink.com 1.10,2013-01-17 00:31:00,
2013-01-16 18:46:00,38.7,20.0,30.24,SW,228,0.0,0.0,47,0.00,,,0.00,weatherlink.com 1.10,2013-01-17 00:46:00,
2013-01-16 19:01:00,39.7,20.0,30.25,West,262,0.0,1.0,46,0.00,,,0.00,weatherlink.com 1.10,2013-01-17 01:01:00,
2013-01-16 19:16:00,39.6,20.0,30.25,WNW,285,0.0,1.0,46,0.00,,,0.00,weatherlink.com 1.10,2013-01-17 01:16:00,
2013-01-16 19:31:00,39.3,20.0,30.26,West,259,0.0,2.0,47,0.00,,,0.00,weatherlink.com 1.10,2013-01-17 01:31:00,
2013-01-16 19:46:00,38.7,20.0,30.26,WSW,255,0.0,1.0,48,0.00,,,0.00,weatherlink.com 1.10,2013-01-17 01:46:00,
2013-01-16 20:01:00,37.8,20.0,30.27,WSW,255,0.0,0.0,49,0.00,,,0.00,weatherlink.com 1.10,2013-01-17 02:01:00,
2013-01-16 20:16:00,36.9,20.0,30.27,WSW,252,0.0,0.0,50,0.00,,,0.00,weatherlink.com 1.10,2013-01-17 02:16:00,
2013-01-16 20:31:00,36.3,19.0,30.27,WSW,252,0.0,1.0,50,0.00,,,0.00,weatherlink.com 1.10,2013-01-17 02:31:00,
2013-01-16 20:46:00,35.9,20.0,30.27,SW,218,0.0,1.0,52,0.00,,,0.00,weatherlink.com 1.10,2013-01-17 02:46:00,
2013-01-16 21:01:00,35.1,19.0,30.27,WSW,246,0.0,1.0,53,0.00,,,0.00,weatherlink.com 1.10,2013-01-17 03:01:00,
2013-01-16 21:16:00,35.3,20.0,30.27,WSW,245,0.0,0.0,53,0.00,,,0.00,weatherlink.com 1.10,2013-01-17 03:16:00,
2013-01-16 21:31:00,34.5,19.0,30.27,WSW,250,0.0,1.0,54,0.00,,,0.00,weatherlink.com 1.10,2013-01-17 03:31:00,
2013-01-16 21:46:00,32.3,20.0,30.28,WSW,250,0.0,0.0,61,0.00,,,0.00,weatherlink.com 1.10,2013-01-17 03:46:00,
2013-01-16 22:01:00,30.0,19.0,30.27,WSW,249,0.0,0.0,65,0.00,,,0.00,weatherlink.com 1.10,2013-01-17 04:01:00,
2013-01-16 22:16:00,30.0,19.0,30.28,WSW,250,0.0,0.0,64,0.00,,,0.00,weatherlink.com 1.10,2013-01-17 04:16:00,
2013-01-16 22:31:00,31.1,19.0,30.28,WSW,250,0.0,0.0,61,0.00,,,0.00,weatherlink.com 1.10,2013-01-17 04:31:00,
2013-01-16 22:46:00,30.7,19.0,30.28,WSW,250,0.0,0.0,62,0.00,,,0.00,weatherlink.com 1.10,2013-01-17 04:46:00,
2013-01-16 23:01:00,30.6,19.0,30.28,WSW,250,0.0,0.0,63,0.00,,,0.00,weatherlink.com 1.10,2013-01-17 05:01:00,
2013-01-16 23:31:00,29.6,20.0,30.29,WSW,252,0.0,0.0,68,0.00,,,0.00,weatherlink.com 1.10,2013-01-17 05:31:00,
2013-01-16 23:46:00,28.3,20.0,30.30,WSW,252,0.0,0.0,70,0.00,,,0.00,weatherlink.com 1.10,2013-01-17 05:46:00,